Aeroporto :
LOGIN :

Iscrizione | Disclaimer

   EN    FR    IT 

 










Sommario :    VFR   VFR Marginale   IFR   IFR Intensivo   IFR Molto Intensivo
Visibilità : 
Base nubi : 
>= 8 km
>= 3000ft
5 / 8 km
1000 / 3000 ft
1500m / 5 km
500 / 1000 ft
800 / 1500m
200 / 500 ft
< 800m
< 200 ft
Simboli :   Temporali  Nebbia  Neve Forte  Precipitazioni Forti  Vento > 20 kt
SIGMETs :   Varie  Temporali  Ghiacco  Turbolenza  Onda orograficha  Ceneri Vulcaniche






- Altitudine del aeroporto : 36 ft
- Codice IATA : LTQ


LFAT - Le Touquet

ULTIMO METAR :
  • 061730Z AUTO 24017KT 200V260 9999 -RA BKN009 OVC015 11/10 Q1006 TEMPO 24020G35KT 3000 SHRA BKN008 BKN020TCU

METARs OBSOLETI :
  • 061700Z AUTO 23015KT 190V270 9000 OVC004 11/10 Q1006 TEMPO 24020G35KT 3000 SHRA BKN008 BKN020TCU
  • 061630Z AUTO 22016KT 190V260 3500 -RA BR OVC004 10/10 Q1006 TEMPO 24020G35KT SHRA BKN008 BKN020TCU
  • 061600Z AUTO 22015G26KT 190V250 5000 -DZ BR OVC004 10/10 Q1006 TEMPO SHRA BKN008 BKN020TCU
  • 061530Z AUTO 22014G26KT 180V250 2900 -DZ BR OVC004 10/09 Q1006 TEMPO 3000 SHRA BKN008 BKN020TCU
  • 061500Z AUTO 22014G25KT 180V240 3700 -DZ BR OVC004 10/09 Q1006 TEMPO DZRA

TAF TAF LFAT
Valido dal 06 a 15 ore il 07 a 00 ore UTC


061400Z 0615/0624 21017KT 9999 OVC008
TEMPO 0615/0617 21017G27KT 3000 DZRA OVC004
TEMPO 0617/0620 24020G35KT 3000 SHRA BKN008 BKN020TCU
FM062000 28020G35KT 9999 SCT030
BECMG 0621/0624 28015KT
ATIS : +33 3 21 06 62 84



MetMap, La meteo Aeronautica in un colpo d'occhio ! - Copyright ORBIFLY Dicembre 2007 - Disclaimer

ORBIFLY MET'MAP TEAM :

Programmazione e sviluppo : Alexandra Zaïnal
Concezione : Baudouin d'Aumeries
Aiuto per la programmazione : Marc-Olivier Méhu
Supporto tecnico e logistico : Manuel Goepfert
Aiuto per la traduzione : Arnaldo La Scala

Contatto : metmap@orbifly.com




FONTI E CREDITI :

   NOAA